Latest Weather Observations for Wattamolla

IDN60901

Issued at 10:41 pm EST Saturday 22 June 2024 (issued every 10 minutes, with the page automatically refreshed every 10 minutes)

About weather observations | Map of Sydney area stations | Latest observations for Sydney area | Other Formats
Station Details ID: 066208 Name: WATTAMOLLA AWS Lat: -34.14 Lon: 151.12 Height: 44.0 m
Data from the previous 72 hours. | See also: Recent months at Wattamolla
Date/Time
EST
Temp
°C
App
Temp
°C
Dew
Point
°C
Rel
Hum
%
Delta-T
°C
Wind Press
QNH
hPa
Press
MSL
hPa
Rain since
9am
mm
Dir  Spd
km/h
Gust
km/h
Spd
kts
Gust
kts
22/10:31pm - - - - - S 35 54 19 29 - - -
22/10:30pm - - - - - S 37 54 20 29 - - -
22/10:00pm - - - - - S 48 63 26 34 - - -
22/09:58pm - - - - - S 46 63 25 34 - - -
22/09:43pm - - - - - S 37 56 20 30 - - -
22/09:30pm - - - - - S 39 56 21 30 - - -
22/09:00pm - - - - - S 41 59 22 32 - - -
22/08:41pm - - - - - S 46 67 25 36 - - -
22/08:30pm - - - - - S 46 59 25 32 - - -
22/08:00pm - - - - - S 35 54 19 29 - - -
22/07:30pm - - - - - S 33 59 18 32 - - -
22/07:05pm - - - - - SSW 30 57 16 31 - - -
22/07:00pm - - - - - SSW 24 39 13 21 - - -
22/06:52pm - - - - - S 30 48 16 26 - - -
22/06:39pm - - - - - S 41 59 22 32 - - -
22/06:30pm - - - - - S 43 56 23 30 - - -
22/06:00pm - - - - - S 54 70 29 38 - - -
22/05:31pm - - - - - S 43 61 23 33 - - -
22/05:30pm - - - - - S 44 61 24 33 - - -
22/05:02pm - - - - - S 50 69 27 37 - - -
22/05:00pm - - - - - S 52 69 28 37 - - -
22/04:30pm - - - - - S 57 76 31 41 - - -
22/04:29pm - - - - - S 57 76 31 41 - - -
22/04:15pm - - - - - S 44 76 24 41 - - -
22/04:00pm - - - - - S 43 61 23 33 - - -
22/03:45pm - - - - - S 54 72 29 39 - - -
22/03:38pm - - - - - S 65 83 35 45 - - -
22/03:30pm - - - - - S 50 83 27 45 - - -
22/03:29pm - - - - - S 48 83 26 45 - - -
22/03:27pm - - - - - S 44 63 24 34 - - -
22/03:00pm - - - - - S 57 65 31 35 - - -
22/02:30pm - - - - - S 57 76 31 41 - - -
22/02:26pm - - - - - S 63 82 34 44 - - -
22/02:20pm - - - - - S 57 82 31 44 - - -
22/02:15pm - - - - - S 46 65 25 35 - - -
22/02:00pm - - - - - S 46 63 25 34 - - -
22/01:30pm - - - - - S 52 74 28 40 - - -
22/01:15pm - - - - - S 54 72 29 39 - - -
22/01:00pm - - - - - S 56 70 30 38 - - -
22/12:31pm - - - - - S 52 70 28 38 - - -
22/12:30pm - - - - - S 52 69 28 37 - - -
22/12:20pm - - - - - S 35 67 19 36 - - -
22/12:01pm - - - - - S 30 48 16 26 - - -
22/12:00pm - - - - - S 28 44 15 24 - - -
22/11:42am - - - - - S 50 65 27 35 - - -
22/11:30am - - - - - S 63 78 34 42 - - -
22/11:21am - - - - - S 43 63 23 34 - - -
22/11:17am - - - - - S 39 56 21 30 - - -
22/11:11am - - - - - S 48 59 26 32 - - -
22/11:00am - - - - - S 57 70 31 38 - - -
22/10:56am - - - - - S 52 70 28 38 - - -
22/10:32am - - - - - S 32 52 17 28 - - -
22/10:30am - - - - - S 33 50 18 27 - - -
22/10:04am - - - - - S 48 67 26 36 - - -
22/10:00am - - - - - S 41 56 22 30 - - -
22/09:30am - - - - - S 33 54 18 29 - - -
22/09:23am - - - - - S 26 54 14 29 - - -
22/09:00am - - - - - NNW 13 22 7 12 - - -
22/08:30am - - - - - SSW 20 35 11 19 - - -
22/08:00am - - - - - S 28 35 15 19 - - -
22/07:30am - - - - - S 15 26 8 14 - - -
22/07:00am - - - - - SSE 22 33 12 18 - - -
22/06:30am - - - - - S 13 24 7 13 - - -
22/06:00am - - - - - WSW 11 15 6 8 - - -
22/05:30am - - - - - SW 15 24 8 13 - - -
22/05:00am - - - - - S 20 33 11 18 - - -
22/04:30am - - - - - S 32 44 17 24 - - -
22/04:19am - - - - - S 24 46 13 25 - - -
22/04:00am - - - - - WSW 17 26 9 14 - - -
22/03:30am - - - - - W 15 19 8 10 - - -
22/03:00am - - - - - SW 15 20 8 11 - - -
22/02:30am - - - - - SW 15 24 8 13 - - -
22/02:00am - - - - - SSW 19 35 10 19 - - -
22/01:50am - - - - - SSW 28 46 15 25 - - -
22/01:30am - - - - - S 37 48 20 26 - - -
22/01:00am - - - - - S 41 52 22 28 - - -
22/12:30am - - - - - S 39 52 21 28 - - -
22/12:10am - - - - - SSW 28 50 15 27 - - -
22/12:00am - - - - - W 20 39 11 21 - - -
 
Date/Time
EST
Temp
°C
App
Temp
°C
Dew
Point
°C
Rel
Hum
%
Delta-T
°C
Wind Press
QNH
hPa
Press
MSL
hPa
Rain since
9am
mm
Dir  Spd
km/h
Gust
km/h
Spd
kts
Gust
kts
21/11:30pm - - - - - W 20 26 11 14 - - -
21/11:00pm - - - - - W 20 28 11 15 - - -
21/10:30pm - - - - - WSW 19 26 10 14 - - -
21/10:00pm - - - - - SW 17 30 9 16 - - -
21/09:51pm - - - - - SSW 24 37 13 20 - - -
21/09:30pm - - - - - S 39 54 21 29 - - -
21/09:04pm - - - - - S 32 50 17 27 - - -
21/09:00pm - - - - - S 30 46 16 25 - - -
21/08:54pm - - - - - S 28 46 15 25 - - -
21/08:30pm - - - - - SW 19 26 10 14 - - -
21/08:00pm - - - - - W 17 26 9 14 - - -
21/07:30pm - - - - - SW 17 26 9 14 - - -
21/07:00pm - - - - - S 22 33 12 18 - - -
21/06:30pm - - - - - S 24 39 13 21 - - -
21/06:00pm - - - - - SSW 20 33 11 18 - - -
21/05:56pm - - - - - SW 19 33 10 18 - - -
21/05:46pm - - - - - SSW 32 48 17 26 - - -
21/05:45pm - - - - - S 33 52 18 28 - - -
21/05:30pm - - - - - S 32 37 17 20 - - -
21/05:00pm - - - - - S 33 41 18 22 - - -
21/04:30pm - - - - - S 35 41 19 22 - - -
21/04:00pm - - - - - SSE 26 33 14 18 - - -
21/03:30pm - - - - - SSE 30 39 16 21 - - -
21/03:00pm - - - - - S 24 32 13 17 - - -
21/02:30pm - - - - - S 24 30 13 16 - - -
21/02:00pm - - - - - S 28 37 15 20 - - -
21/01:30pm - - - - - S 26 33 14 18 - - -
21/01:00pm - - - - - S 24 32 13 17 - - -
21/12:30pm - - - - - S 26 32 14 17 - - -
21/12:00pm - - - - - S 26 30 14 16 - - -
21/11:30am - - - - - SSW 13 22 7 12 - - -
21/11:00am - - - - - SW 13 19 7 10 - - -
21/10:30am - - - - - SW 15 20 8 11 - - -
21/10:00am - - - - - W 17 22 9 12 - - -
21/09:30am - - - - - W 15 20 8 11 - - -
21/09:00am - - - - - S 19 28 10 15 - - -
21/08:30am - - - - - SW 13 26 7 14 - - -
21/08:00am - - - - - W 13 17 7 9 - - -
21/07:30am - - - - - WSW 15 19 8 10 - - -
21/07:00am - - - - - WSW 17 20 9 11 - - -
21/06:30am - - - - - WSW 17 20 9 11 - - -
21/06:00am - - - - - SW 13 17 7 9 - - -
21/05:30am - - - - - SW 15 17 8 9 - - -
21/05:00am - - - - - SW 13 17 7 9 - - -
21/04:30am - - - - - SW 11 13 6 7 - - -
21/04:00am - - - - - SSW 13 17 7 9 - - -
21/03:30am - - - - - WNW 11 15 6 8 - - -
21/03:00am - - - - - W 11 15 6 8 - - -
21/02:30am - - - - - WNW 13 15 7 8 - - -
21/02:00am - - - - - NW 17 19 9 10 - - -
21/01:30am - - - - - NW 19 19 10 10 - - -
21/01:00am - - - - - NW 17 19 9 10 - - -
21/12:30am - - - - - NW 15 15 8 8 - - -
21/12:00am - - - - - NW 13 15 7 8 - - -
 
Date/Time
EST
Temp
°C
App
Temp
°C
Dew
Point
°C
Rel
Hum
%
Delta-T
°C
Wind Press
QNH
hPa
Press
MSL
hPa
Rain since
9am
mm
Dir  Spd
km/h
Gust
km/h
Spd
kts
Gust
kts
20/11:30pm - - - - - NW 13 15 7 8 - - -
20/11:00pm - - - - - NW 15 15 8 8 - - -
20/10:30pm - - - - - NW 15 17 8 9 - - -
20/10:00pm - - - - - NW 17 17 9 9 - - -
20/09:30pm - - - - - NNW 15 17 8 9 - - -
20/09:00pm - - - - - NW 15 17 8 9 - - -
20/08:30pm - - - - - NW 15 15 8 8 - - -
20/08:00pm - - - - - NW 17 17 9 9 - - -
20/07:30pm - - - - - NW 13 13 7 7 - - -
20/07:00pm - - - - - NW 13 13 7 7 - - -
20/06:30pm - - - - - NNW 11 11 6 6 - - -
20/06:00pm - - - - - NNW 11 13 6 7 - - -
20/05:30pm - - - - - N 11 13 6 7 - - -
20/05:00pm - - - - - NNW 9 11 5 6 - - -
20/04:30pm - - - - - N 2 7 1 4 - - -
20/04:00pm - - - - - W 6 7 3 4 - - -
20/03:30pm - - - - - SW 6 9 3 5 - - -
20/03:00pm - - - - - NW 7 11 4 6 - - -
20/02:30pm - - - - - NW 7 13 4 7 - - -
20/02:00pm - - - - - SSE 7 9 4 5 - - -
20/01:30pm - - - - - SW 7 13 4 7 - - -
20/01:00pm - - - - - WNW 7 13 4 7 - - -
20/12:30pm - - - - - NW 9 13 5 7 - - -
20/12:00pm - - - - - SSW 7 13 4 7 - - -
20/11:30am - - - - - SW 9 13 5 7 - - -
20/11:00am - - - - - SSW 9 15 5 8 - - -
20/10:30am - - - - - WSW 11 15 6 8 - - -
20/10:00am - - - - - WNW 15 19 8 10 - - -
20/09:30am - - - - - NW 15 24 8 13 - - -
20/09:00am - - - - - WNW 13 17 7 9 - - -
20/08:30am - - - - - W 15 20 8 11 - - -
20/08:00am - - - - - WSW 11 15 6 8 - - -
20/07:30am - - - - - WSW 13 19 7 10 - - -
20/07:00am - - - - - WNW 13 22 7 12 - - -
20/06:30am - - - - - W 15 20 8 11 - - -
20/06:00am - - - - - SW 11 15 6 8 - - -
20/05:30am - - - - - NNW 7 13 4 7 - - -
20/05:00am - - - - - WSW 11 19 6 10 - - -
20/04:30am - - - - - WSW 11 17 6 9 - - -
20/04:00am - - - - - WNW 17 20 9 11 - - -
20/03:30am - - - - - WNW 15 20 8 11 - - -
20/03:00am - - - - - W 13 15 7 8 - - -
20/02:30am - - - - - W 15 20 8 11 - - -
20/02:00am - - - - - WNW 15 19 8 10 - - -
20/01:30am - - - - - NNW 13 20 7 11 - - -
20/01:00am - - - - - WNW 11 15 6 8 - - -
20/12:30am - - - - - WNW 17 26 9 14 - - -
20/12:00am - - - - - W 24 28 13 15 - - -
 
Date/Time
EST
Temp
°C
App
Temp
°C
Dew
Point
°C
Rel
Hum
%
Delta-T
°C
Wind Press
QNH
hPa
Press
MSL
hPa
Rain since
9am
mm
Dir  Spd
km/h
Gust
km/h
Spd
kts
Gust
kts
19/11:30pm - - - - - W 19 28 10 15 - - -
19/11:00pm - - - - - WNW 17 20 9 11 - - -

Latest Capital City Observations: Canberra | Sydney | Melbourne | Brisbane | Adelaide | Perth | Hobart | Darwin

Other formats

Comma delimited format used in spreadsheet applications
http://www.bom.gov.au/fwo/IDN60901/IDN60901.95752.axf

JavaScript Object Notation format (JSON) in row-major order
http://www.bom.gov.au/fwo/IDN60901/IDN60901.95752.json

Data quality

Most of these data are generated automatically and are frequently updated. Quality checks on data are not normally performed. It is possible for incorrect values to appear. Refer to information at About Latest Weather Observations and please check the disclaimer before using these data.